Purlear, NC (28665)

9:24 AM EST on January 31, 2015 (GMT -0500)
Phillips Gap | Change Station
CLOSE
Current Station
Personal Weather Station
Location: Purlear, NC
Elevation: 3064 ft
Nearby Weather Stations

Elev 3064 ft 36.25 °N, 81.41 °W | Updated 22 minutes ago

Clear
Clear
28.7 °F
Feels Like 29 °F
N
0.0
Wind Variable Wind from North
Gusts 1.0 mph

Today
High -- | Low -- °F
--% Chance of Precip.
Yesterday
High -- | Low -- °F
Precip. -- in
7:27 AM 5:50 PM
Waxing Gibbous, 90% visible
Pressure 30.22 in
Visibility 10.0 miles
Clouds Clear
Windchill 29 °F
Dew Point -4 °F
Humidity 24%
Rainfall -999.00 in
Snow Depth Not available.
UV 1 out of 12
Pollen .40 out of 12
Air Quality Not available.
Flu Activity Not available.
METAR KGEV 311415Z AUTO 00000KT 10SM CLR M03/M19 A3022 RMK AO2 T10271186

More Conditions Fewer Conditions

Pressure 30.22 in
Visibility 10.0 miles
Clouds Clear
Windchill 29 °F
Dew Point -4 °F
Humidity 24%
Rainfall -999.00 in
Snow Depth Not available.
UV 1 out of 12
Pollen .40 out of 12
Air Quality Not available.
Flu Activity Not available.
METAR KGEV 311415Z AUTO 00000KT 10SM CLR M03/M19 A3022 RMK AO2 T10271186

More Conditions Fewer Conditions

10-Day Weather Forecast

Almanac

Astronomy

Jan. 31, 2015 Rise Set
Actual Time
Civil Twilight
Nautical Twilight
Astronomical Twilight
Moon
Length of Visible Light
Length of Day
Tomorrow will be .
, % of the Moon is Illuminated

Today's Extremes

State Highs State Lows

Community

WunderPhotos

Upload Photos

1,792,058 photos uploaded!

WunderBlogs® & News

Nearby

Air Quality

  Air Quality AQ Index Pollutant
Not available.

Snow Depth

Station Depth Elevation

Earthquake Activity

City Distance Mag. Time & Date
Minimum magnitude displayed is 2.5.

Coastal Water Temperatures

Place Temperature

Nearby Weather Stations